Time;durP1;ratioP1;P1;durP2;ratioP2;P2;SDS_P1;SDS_P2;PMS_P1;PMS_P2;Temp;Humidity;BMP_temperature;BMP_pressure;BME280_temperature;BME280_humidity;BME280_pressure;Samples;Min_cycle;Max_cycle;Signal;HPM_P1;HPM_P2
2021/10/13 00:02:09;;;;;;;6.13;4.30;;;8.80;99.90;;;;;;5019984;28;20546;-83
2021/10/13 00:04:35;;;;;;;9.97;5.90;;;8.90;99.90;;;;;;5019687;28;20162;-82
2021/10/13 00:07:02;;;;;;;5.13;4.63;;;8.80;99.90;;;;;;5018590;28;20500;-82
2021/10/13 00:09:28;;;;;;;9.43;5.60;;;8.70;99.90;;;;;;5018853;28;20204;-82
2021/10/13 00:11:53;;;;;;;6.70;4.87;;;8.60;99.90;;;;;;5020285;28;20415;-81
2021/10/13 00:14:19;;;;;;;7.93;5.20;;;8.60;99.90;;;;;;5025693;28;20172;-81
2021/10/13 00:16:52;;;;;;;6.10;5.17;;;8.70;99.90;;;;;;5026278;28;20188;-79
2021/10/13 00:19:20;;;;;;;7.60;5.10;;;8.70;99.90;;;;;;5025764;28;20407;-81
2021/10/13 00:21:46;;;;;;;6.63;5.27;;;8.80;99.90;;;;;;5025206;28;20471;-81
2021/10/13 00:24:12;;;;;;;7.33;5.90;;;8.90;99.90;;;;;;5027111;28;20393;-81
2021/10/13 00:26:38;;;;;;;7.97;6.30;;;8.90;99.90;;;;;;5026499;28;20164;-80
2021/10/13 00:29:04;;;;;;;7.60;5.50;;;8.80;99.90;;;;;;4987043;28;20249;-80
2021/10/13 00:31:30;;;;;;;5.90;4.40;;;8.60;99.90;;;;;;5003613;28;20492;-81
2021/10/13 00:33:55;;;;;;;5.90;4.90;;;8.70;99.90;;;;;;5003777;28;20728;-80
2021/10/13 00:36:21;;;;;;;4.90;4.40;;;8.70;99.90;;;;;;5003114;28;20181;-80
2021/10/13 00:38:47;;;;;;;5.40;3.87;;;8.80;99.90;;;;;;5004095;28;20413;-80
2021/10/13 00:41:14;;;;;;;7.73;4.30;;;8.80;99.90;;;;;;5003977;28;20166;-80
2021/10/13 00:43:43;;;;;;;5.93;5.33;;;8.80;99.90;;;;;;5003671;28;20307;-79
2021/10/13 00:46:09;;;;;;;4.70;4.20;;;8.80;99.90;;;;;;4988026;28;20488;-80
2021/10/13 00:48:34;;;;;;;5.53;5.03;;;8.80;99.90;;;;;;4987541;28;20416;-80
2021/10/13 00:51:00;;;;;;;5.87;4.20;;;8.80;99.90;;;;;;5003539;28;20493;-80
2021/10/13 00:53:27;;;;;;;8.70;4.00;;;8.70;99.90;;;;;;5007376;28;20170;-80
2021/10/13 00:55:53;;;;;;;4.10;3.80;;;8.70;99.90;;;;;;5007039;28;20408;-80
2021/10/13 00:58:19;;;;;;;5.10;4.60;;;8.70;99.90;;;;;;5007075;28;20433;-80
2021/10/13 01:00:53;;;;;;;4.00;3.63;;;8.80;99.90;;;;;;5022835;28;20185;-80
2021/10/13 01:03:39;;;;;;;3.33;3.03;;;8.80;99.90;;;;;;5026592;28;20538;-79
2021/10/13 01:06:32;;;;;;;4.10;3.80;;;8.80;99.90;;;;;;5025358;28;20445;-80
2021/10/13 01:09:13;;;;;;;6.67;4.27;;;8.80;99.90;;;;;;5024804;28;20423;-80
2021/10/13 01:11:59;;;;;;;3.80;3.50;;;8.80;99.90;;;;;;5025945;28;20411;-80
2021/10/13 01:14:57;;;;;;;4.50;3.23;;;8.90;99.90;;;;;;5027087;28;20463;-81
2021/10/13 01:17:35;;;;;;;6.13;4.37;;;8.90;99.90;;;;;;5026845;28;20397;-81
2021/10/13 01:20:24;;;;;;;6.20;4.07;;;8.90;99.90;;;;;;5025450;28;20442;-80
2021/10/13 01:23:16;;;;;;;4.90;3.90;;;8.90;99.90;;;;;;5023181;28;20451;-81
2021/10/13 01:25:51;;;;;;;4.97;4.33;;;8.90;99.90;;;;;;5027583;28;20439;-81
2021/10/13 01:28:20;;;;;;;4.67;3.50;;;8.90;99.90;;;;;;5029834;28;20403;-81
2021/10/13 01:30:53;;;;;;;5.63;4.20;;;8.90;99.90;;;;;;5028733;28;20499;-80
2021/10/13 01:33:35;;;;;;;5.83;3.57;;;8.90;99.90;;;;;;5028431;28;20459;-80
2021/10/13 01:36:06;;;;;;;4.70;4.30;;;8.90;99.90;;;;;;5028618;28;20404;-81
2021/10/13 01:38:38;;;;;;;5.43;4.23;;;8.80;99.90;;;;;;5028526;28;20464;-81
2021/10/13 01:41:06;;;;;;;5.63;4.40;;;8.70;99.90;;;;;;5028771;28;20407;-80
2021/10/13 01:43:36;;;;;;;6.00;5.27;;;8.60;99.90;;;;;;5028592;28;20935;-81
2021/10/13 01:46:04;;;;;;;5.03;4.53;;;8.70;99.90;;;;;;5028481;28;20424;-81
2021/10/13 01:48:32;;;;;;;6.40;4.93;;;8.70;99.90;;;;;;5026954;28;20465;-80
2021/10/13 01:50:58;;;;;;;4.37;3.80;;;8.70;99.90;;;;;;5026939;28;20399;-80
2021/10/13 01:53:25;;;;;;;3.53;3.23;;;8.80;99.90;;;;;;5028599;28;20411;-81
2021/10/13 01:55:55;;;;;;;6.87;4.17;;;8.90;99.90;;;;;;5028177;28;20396;-81
2021/10/13 01:58:22;;;;;;;5.10;4.27;;;8.90;99.90;;;;;;5027839;28;20396;-80
2021/10/13 02:00:50;;;;;;;7.00;3.87;;;9.00;99.90;;;;;;5028074;28;20400;-80
2021/10/13 02:03:20;;;;;;;3.43;3.13;;;9.00;99.90;;;;;;5027756;28;20935;-80
2021/10/13 02:05:50;;;;;;;6.50;3.90;;;9.00;99.90;;;;;;5027875;28;20487;-81
2021/10/13 02:08:19;;;;;;;5.90;3.53;;;9.00;99.90;;;;;;5027911;28;20825;-81
2021/10/13 02:10:48;;;;;;;4.37;3.97;;;8.90;99.90;;;;;;5027451;28;20494;-80
2021/10/13 02:13:16;;;;;;;4.43;3.50;;;8.90;99.90;;;;;;5027072;28;20432;-81
2021/10/13 02:15:45;;;;;;;6.30;3.53;;;8.80;99.90;;;;;;5027956;28;20404;-80
2021/10/13 02:18:21;;;;;;;12.73;4.20;;;8.90;99.90;;;;;;5027384;28;20450;-80
2021/10/13 02:20:48;;;;;;;3.63;3.33;;;8.90;99.90;;;;;;5027940;28;20435;-81
2021/10/13 02:23:15;;;;;;;3.63;3.33;;;8.90;99.90;;;;;;5027437;28;20936;-81
2021/10/13 02:25:47;;;;;;;3.40;3.10;;;9.00;99.90;;;;;;5027359;28;20396;-80
2021/10/13 02:28:24;;;;;;;3.13;2.93;;;9.10;99.90;;;;;;5027515;28;20386;-81
2021/10/13 02:30:51;;;;;;;3.30;2.93;;;9.10;99.90;;;;;;5027560;28;20388;-81
2021/10/13 02:33:17;;;;;;;3.03;2.80;;;9.10;99.90;;;;;;5026232;28;20881;-79
2021/10/13 02:35:43;;;;;;;5.97;3.53;;;9.10;99.90;;;;;;5026488;28;20400;-80
2021/10/13 02:38:09;;;;;;;3.70;3.40;;;9.10;99.90;;;;;;5026840;28;20407;-78
2021/10/13 02:40:35;;;;;;;4.07;3.70;;;9.10;99.90;;;;;;5027476;28;20173;-80
2021/10/13 02:43:01;;;;;;;4.20;3.80;;;9.10;99.90;;;;;;5026753;28;20447;-81
2021/10/13 02:45:32;;;;;;;4.90;4.13;;;9.00;99.90;;;;;;5027577;28;20397;-81
2021/10/13 02:48:03;;;;;;;3.17;2.83;;;9.00;99.90;;;;;;5026925;28;20376;-81
2021/10/13 02:50:46;;;;;;;5.47;3.67;;;9.00;99.90;;;;;;5027261;28;20400;-79
2021/10/13 02:53:30;;;;;;;5.13;3.17;;;9.00;99.90;;;;;;5027487;28;20404;-81
2021/10/13 02:56:02;;;;;;;3.80;3.50;;;8.90;99.90;;;;;;5026684;28;20392;-81
2021/10/13 02:58:45;;;;;;;4.43;3.30;;;8.80;99.90;;;;;;5026745;28;20400;-81
2021/10/13 03:01:15;;;;;;;4.10;3.70;;;8.80;99.90;;;;;;5020697;28;20439;-81
2021/10/13 03:03:49;;;;;;;4.50;2.90;;;8.90;99.90;;;;;;5019457;28;20466;-81
2021/10/13 03:06:17;;;;;;;4.60;3.60;;;8.90;99.90;;;;;;5020133;28;20399;-82
2021/10/13 03:08:47;;;;;;;3.67;3.37;;;9.00;99.90;;;;;;5019480;28;20471;-80
2021/10/13 03:11:16;;;;;;;3.60;3.30;;;8.90;99.90;;;;;;5020071;28;20393;-81
2021/10/13 03:13:46;;;;;;;4.73;3.70;;;9.00;99.90;;;;;;5019720;28;20866;-81
2021/10/13 03:16:13;;;;;;;5.40;3.50;;;9.00;99.90;;;;;;5019731;28;20407;-82
2021/10/13 03:18:41;;;;;;;3.10;2.90;;;8.90;99.90;;;;;;5019665;28;20451;-82
2021/10/13 03:21:10;;;;;;;3.70;3.40;;;8.90;99.90;;;;;;5019828;28;20435;-82
2021/10/13 03:23:35;;;;;;;7.73;4.33;;;8.90;99.90;;;;;;5019311;28;20839;-82
2021/10/13 03:26:11;;;;;;;3.17;2.97;;;8.90;99.90;;;;;;5020198;28;20491;-82
2021/10/13 03:28:39;;;;;;;3.63;3.20;;;8.80;99.90;;;;;;5019481;28;20232;-82
2021/10/13 03:31:06;;;;;;;3.70;2.90;;;8.80;99.90;;;;;;5019288;28;20393;-80
2021/10/13 03:33:32;;;;;;;3.80;3.50;;;8.80;99.90;;;;;;5019334;28;20806;-82
2021/10/13 03:35:59;;;;;;;3.60;3.27;;;8.80;99.90;;;;;;5019062;28;20494;-82
2021/10/13 03:38:25;;;;;;;3.27;2.97;;;8.70;99.90;;;;;;5019444;28;20392;-82
2021/10/13 03:40:51;;;;;;;5.17;3.00;;;8.60;99.90;;;;;;5019184;28;20450;-82
2021/10/13 03:43:17;;;;;;;17.33;3.30;;;8.60;99.90;;;;;;5019426;28;20523;-81
2021/10/13 03:45:43;;;;;;;4.33;3.60;;;8.50;99.90;;;;;;5018755;28;20388;-80
2021/10/13 03:48:09;;;;;;;5.47;3.63;;;8.40;99.90;;;;;;5018056;28;20419;-82
2021/10/13 03:50:35;;;;;;;6.13;3.10;;;8.40;99.90;;;;;;5017350;28;20177;-82
2021/10/13 03:53:01;;;;;;;9.93;3.27;;;8.30;99.90;;;;;;5018717;28;20392;-81
2021/10/13 03:55:27;;;;;;;5.10;3.73;;;8.40;99.90;;;;;;5019113;28;20252;-81
2021/10/13 03:57:53;;;;;;;4.13;3.70;;;8.30;99.90;;;;;;5018565;28;20161;-81
2021/10/13 04:00:21;;;;;;;6.40;3.20;;;8.30;99.90;;;;;;5018922;28;20173;-81
2021/10/13 04:02:47;;;;;;;3.33;2.90;;;8.20;99.90;;;;;;5018857;28;20545;-81
2021/10/13 04:05:14;;;;;;;3.80;3.13;;;8.20;99.90;;;;;;5019282;28;20779;-79
2021/10/13 04:07:40;;;;;;;5.60;4.40;;;8.10;99.90;;;;;;5019846;28;20392;-82
2021/10/13 04:10:09;;;;;;;6.80;3.43;;;8.20;99.90;;;;;;5002936;28;20393;-83
2021/10/13 04:12:36;;;;;;;11.40;3.97;;;8.00;99.90;;;;;;5019811;28;20427;-82
2021/10/13 04:15:05;;;;;;;3.70;3.40;;;8.00;99.90;;;;;;5019860;28;20481;-82
2021/10/13 04:17:33;;;;;;;3.50;3.20;;;8.10;99.90;;;;;;5020039;28;20447;-83
2021/10/13 04:20:00;;;;;;;3.50;2.90;;;8.00;99.90;;;;;;5019497;28;20459;-83
2021/10/13 04:22:26;;;;;;;3.70;3.10;;;8.00;99.90;;;;;;5018895;28;20940;-83
2021/10/13 04:24:52;;;;;;;4.60;4.20;;;8.10;99.90;;;;;;5019494;28;20404;-83
2021/10/13 04:27:18;;;;;;;3.97;3.67;;;8.00;99.90;;;;;;5019711;28;20215;-82
2021/10/13 04:29:44;;;;;;;4.80;3.53;;;8.10;99.90;;;;;;5019311;28;20184;-82
2021/10/13 04:32:10;;;;;;;2.97;2.77;;;8.10;99.90;;;;;;5019557;28;20236;-83
2021/10/13 04:34:35;;;;;;;4.93;4.47;;;8.10;99.90;;;;;;5018055;28;20396;-83
2021/10/13 04:37:01;;;;;;;3.37;3.07;;;8.10;99.90;;;;;;5019132;28;20189;-83
2021/10/13 04:39:27;;;;;;;4.00;3.17;;;8.10;99.90;;;;;;5019068;28;20169;-83
2021/10/13 04:41:53;;;;;;;7.40;4.17;;;8.10;99.90;;;;;;5019693;28;20200;-83
2021/10/13 04:44:19;;;;;;;5.03;4.20;;;8.10;99.90;;;;;;5020269;28;20165;-82
2021/10/13 04:46:44;;;;;;;4.87;4.23;;;8.00;99.90;;;;;;5019173;28;20161;-83
2021/10/13 04:49:10;;;;;;;4.07;3.77;;;8.00;99.90;;;;;;5019794;28;20558;-79
2021/10/13 04:51:36;;;;;;;4.40;4.00;;;8.10;99.90;;;;;;5018789;28;20162;-81
2021/10/13 04:54:02;;;;;;;6.70;3.77;;;8.10;99.90;;;;;;5018081;28;20539;-82
2021/10/13 04:56:28;;;;;;;5.47;4.30;;;8.10;99.90;;;;;;5017552;28;20162;-82
2021/10/13 04:58:53;;;;;;;7.47;4.90;;;8.10;99.90;;;;;;5017748;28;20189;-82
2021/10/13 05:01:19;;;;;;;3.63;3.33;;;8.10;99.90;;;;;;5018177;28;20165;-80
2021/10/13 05:03:45;;;;;;;5.53;5.03;;;8.10;99.90;;;;;;5017717;28;20547;-82
2021/10/13 05:06:10;;;;;;;5.03;3.93;;;8.10;99.90;;;;;;5021947;28;20216;-80
2021/10/13 05:08:36;;;;;;;5.83;3.90;;;8.00;99.90;;;;;;5020050;28;20166;-81
2021/10/13 05:11:02;;;;;;;5.43;4.17;;;8.00;99.90;;;;;;5018081;28;20191;-82
2021/10/13 05:13:28;;;;;;;9.23;4.17;;;8.00;99.90;;;;;;5019207;28;20169;-82
2021/10/13 05:15:54;;;;;;;8.90;4.40;;;8.00;99.90;;;;;;5020417;28;20201;-82
2021/10/13 05:18:21;;;;;;;4.80;4.17;;;7.80;99.90;;;;;;5019326;28;20175;-82
2021/10/13 05:20:47;;;;;;;4.40;4.00;;;7.60;99.90;;;;;;5019828;28;20427;-82
2021/10/13 05:23:13;;;;;;;6.93;6.10;;;7.60;99.90;;;;;;5019281;28;20755;-81
2021/10/13 05:25:39;;;;;;;6.07;5.47;;;7.70;99.90;;;;;;5020888;28;20455;-81
2021/10/13 05:28:05;;;;;;;9.40;4.37;;;7.80;99.90;;;;;;5017710;28;20173;-82
2021/10/13 05:30:31;;;;;;;6.13;4.33;;;7.90;99.90;;;;;;5017935;28;20396;-81
2021/10/13 05:32:56;;;;;;;6.10;5.20;;;7.90;99.90;;;;;;5016714;28;20952;-82
2021/10/13 05:35:22;;;;;;;7.07;4.83;;;8.00;99.90;;;;;;5016681;28;20256;-80
2021/10/13 05:37:57;;;;;;;5.10;4.60;;;7.90;99.90;;;;;;5017320;28;20174;-83
2021/10/13 05:40:25;;;;;;;4.93;4.47;;;7.80;99.90;;;;;;5001377;28;20173;-82
2021/10/13 05:42:51;;;;;;;6.83;4.10;;;7.70;99.90;;;;;;4994542;28;20451;-82
2021/10/13 05:45:17;;;;;;;5.50;4.00;;;7.60;99.90;;;;;;5006677;28;20169;-82
2021/10/13 05:47:42;;;;;;;4.77;4.37;;;7.80;99.90;;;;;;5018218;28;20657;-82
2021/10/13 05:50:12;;;;;;;5.27;4.70;;;7.70;99.90;;;;;;5014379;28;20647;-82
2021/10/13 05:52:37;;;;;;;7.90;5.67;;;7.80;99.90;;;;;;5000492;28;20177;-82
2021/10/13 05:55:04;;;;;;;5.07;4.33;;;7.90;99.90;;;;;;5017473;28;20961;-81
2021/10/13 05:57:29;;;;;;;5.30;4.80;;;7.90;99.90;;;;;;5014859;28;20194;-81
2021/10/13 05:59:57;;;;;;;5.23;4.63;;;8.00;99.90;;;;;;5017404;28;20484;-82
2021/10/13 06:02:24;;;;;;;10.20;5.47;;;8.00;99.90;;;;;;5001212;28;20215;-82
2021/10/13 06:04:55;;;;;;;5.90;4.40;;;7.90;99.90;;;;;;5017297;28;20427;-80
2021/10/13 06:07:21;;;;;;;5.83;5.23;;;8.00;99.90;;;;;;5020802;28;20878;-77
2021/10/13 06:09:46;;;;;;;4.97;4.40;;;7.90;99.90;;;;;;5024020;28;20439;-80
2021/10/13 06:12:12;;;;;;;10.00;4.93;;;7.80;99.90;;;;;;5026491;28;20189;-81
2021/10/13 06:14:38;;;;;;;6.50;5.97;;;7.80;99.90;;;;;;5026245;28;20547;-81
2021/10/13 06:17:06;;;;;;;9.73;5.37;;;7.70;99.90;;;;;;5024931;28;20442;-81
2021/10/13 06:19:32;;;;;;;8.57;6.77;;;7.40;99.90;;;;;;5034708;28;20433;-81
2021/10/13 06:21:58;;;;;;;6.67;5.63;;;7.50;99.90;;;;;;5027179;28;20525;-80
2021/10/13 06:24:23;;;;;;;5.67;5.17;;;7.30;99.90;;;;;;5023083;28;20463;-81
2021/10/13 06:26:49;;;;;;;6.17;4.23;;;7.20;99.90;;;;;;5023833;28;20196;-81
2021/10/13 06:29:16;;;;;;;7.10;5.80;;;6.90;99.90;;;;;;5033307;28;20200;-81
2021/10/13 06:31:42;;;;;;;5.67;4.97;;;7.00;99.90;;;;;;5008389;28;20205;-81
2021/10/13 06:34:08;;;;;;;5.20;4.70;;;6.80;99.90;;;;;;5025689;28;20427;-82
2021/10/13 06:36:34;;;;;;;5.70;5.07;;;6.80;99.90;;;;;;5026594;28;20264;-83
2021/10/13 06:38:59;;;;;;;5.13;4.70;;;6.80;99.90;;;;;;5028307;28;20417;-80
2021/10/13 06:41:27;;;;;;;6.87;6.20;;;7.00;99.90;;;;;;5029782;28;20178;-81
2021/10/13 06:43:53;;;;;;;6.23;5.17;;;7.00;99.90;;;;;;5020251;28;20197;-81
2021/10/13 06:46:19;;;;;;;7.23;4.80;;;6.70;99.90;;;;;;5010893;28;20441;-81
2021/10/13 06:48:45;;;;;;;9.57;4.10;;;6.60;99.90;;;;;;5018304;28;20451;-81
2021/10/13 06:51:11;;;;;;;9.67;5.30;;;6.70;99.90;;;;;;5022296;28;20181;-81
2021/10/13 06:53:37;;;;;;;9.60;5.70;;;6.60;99.90;;;;;;5021152;28;20263;-81
2021/10/13 06:56:03;;;;;;;7.60;5.60;;;6.80;99.90;;;;;;5018582;28;20427;-77
2021/10/13 06:58:30;;;;;;;8.97;7.53;;;6.80;99.90;;;;;;4989934;28;20223;-79
2021/10/13 07:00:56;;;;;;;8.33;6.23;;;6.80;99.90;;;;;;5005438;28;20447;-79
2021/10/13 07:03:25;;;;;;;11.83;4.80;;;6.80;99.90;;;;;;5009551;28;20573;-81
2021/10/13 07:05:51;;;;;;;7.57;5.30;;;6.90;99.90;;;;;;4995668;28;20440;-76
2021/10/13 07:08:17;;;;;;;7.00;5.07;;;6.80;99.90;;;;;;5015786;28;20169;-79
2021/10/13 07:10:43;;;;;;;5.90;5.30;;;6.90;99.90;;;;;;5016692;28;20432;-80
2021/10/13 07:13:08;;;;;;;5.47;4.47;;;6.80;99.90;;;;;;5014249;28;20177;-80
2021/10/13 07:15:34;;;;;;;6.07;5.47;;;6.70;99.90;;;;;;5016912;28;20208;-81
2021/10/13 07:18:01;;;;;;;5.30;4.80;;;6.80;99.90;;;;;;5021572;28;20363;-79
2021/10/13 07:20:29;;;;;;;5.77;5.00;;;6.90;99.90;;;;;;5022651;28;20177;-81
2021/10/13 07:22:57;;;;;;;4.90;4.10;;;6.90;99.90;;;;;;4991934;28;20459;-80
2021/10/13 07:25:25;;;;;;;8.03;5.90;;;7.00;99.90;;;;;;4986172;28;20446;-79
2021/10/13 07:27:54;;;;;;;12.60;4.80;;;6.90;99.90;;;;;;4973822;28;20436;-80
2021/10/13 07:30:23;;;;;;;6.40;4.97;;;7.00;99.90;;;;;;4959755;28;20445;-81
2021/10/13 07:32:50;;;;;;;5.30;4.77;;;7.20;99.90;;;;;;4995661;28;20538;-80
2021/10/13 07:35:16;;;;;;;6.00;5.40;;;7.50;99.90;;;;;;4993876;28;20411;-81
2021/10/13 07:37:42;;;;;;;8.10;5.40;;;7.30;99.90;;;;;;4993813;28;20451;-81
2021/10/13 07:40:08;;;;;;;6.97;6.27;;;7.40;99.90;;;;;;4991853;28;20213;-81
2021/10/13 07:42:34;;;;;;;10.77;6.33;;;7.40;99.90;;;;;;4989870;28;20217;-81
2021/10/13 07:45:00;;;;;;;7.07;6.30;;;7.00;99.90;;;;;;4989046;28;20488;-80
2021/10/13 07:47:27;;;;;;;6.93;5.70;;;7.30;99.90;;;;;;4988529;28;20353;-80
2021/10/13 07:49:53;;;;;;;5.73;4.90;;;7.50;99.90;;;;;;4946072;28;20461;-82
2021/10/13 07:52:19;;;;;;;6.87;4.37;;;7.50;99.90;;;;;;4947409;29;20480;-82
2021/10/13 07:54:46;;;;;;;7.67;5.90;;;7.80;99.90;;;;;;4945323;28;20442;-82
2021/10/13 07:57:12;;;;;;;4.80;4.07;;;8.00;99.90;;;;;;4964942;28;20520;-82
2021/10/13 07:59:38;;;;;;;7.93;4.57;;;8.30;99.90;;;;;;4964301;28;20708;-80
2021/10/13 08:02:04;;;;;;;5.07;3.90;;;8.30;99.90;;;;;;4964940;28;20219;-82
2021/10/13 08:04:30;;;;;;;6.10;4.70;;;8.50;99.90;;;;;;4969218;28;20470;-82
2021/10/13 08:06:56;;;;;;;8.07;4.40;;;8.70;99.90;;;;;;4967082;28;20223;-81
2021/10/13 08:09:22;;;;;;;3.47;3.27;;;8.60;99.90;;;;;;4969548;28;20446;-83
2021/10/13 08:11:48;;;;;;;4.57;3.93;;;8.20;99.90;;;;;;4969771;28;20434;-83
2021/10/13 08:14:14;;;;;;;4.43;3.57;;;7.90;99.90;;;;;;4980764;28;20198;-79
2021/10/13 08:16:41;;;;;;;4.07;3.77;;;8.30;99.90;;;;;;4975496;28;20506;-79
2021/10/13 08:19:07;;;;;;;3.90;3.47;;;8.70;99.90;;;;;;4957929;28;20442;-79
2021/10/13 08:21:33;;;;;;;4.73;4.23;;;8.40;99.90;;;;;;5005487;28;20464;-79
2021/10/13 08:23:59;;;;;;;8.80;4.20;;;8.50;99.90;;;;;;5014596;28;20459;-81
2021/10/13 08:26:27;;;;;;;6.23;3.63;;;8.20;99.90;;;;;;5013126;28;20185;-82
2021/10/13 08:28:54;;;;;;;5.03;4.10;;;8.10;99.90;;;;;;5009410;28;20429;-82
2021/10/13 08:31:20;;;;;;;5.10;4.60;;;8.60;99.90;;;;;;5011440;28;20225;-80
2021/10/13 08:33:46;;;;;;;5.97;4.83;;;9.00;99.90;;;;;;5007775;28;21295;-80
2021/10/13 08:36:14;;;;;;;5.30;4.30;;;9.20;99.90;;;;;;5006517;28;20949;-82
2021/10/13 08:38:40;;;;;;;5.13;4.67;;;8.80;99.90;;;;;;5008893;28;20507;-81
2021/10/13 08:41:07;;;;;;;5.57;4.63;;;8.80;99.90;;;;;;5007581;28;20464;-79
2021/10/13 08:43:33;;;;;;;6.67;4.80;;;9.30;99.90;;;;;;5004201;28;20248;-81
2021/10/13 08:45:59;;;;;;;4.17;3.80;;;9.20;99.90;;;;;;5004530;28;20471;-82
2021/10/13 08:48:24;;;;;;;4.90;4.20;;;8.70;99.90;;;;;;5011439;28;20193;-82
2021/10/13 08:50:50;;;;;;;4.97;4.13;;;8.70;99.90;;;;;;5007267;28;20444;-81
2021/10/13 08:53:20;;;;;;;6.17;4.77;;;9.00;99.90;;;;;;5011676;28;20189;-79
2021/10/13 08:55:48;;;;;;;6.03;4.23;;;9.10;99.90;;;;;;5008448;28;20188;-82
2021/10/13 08:58:17;;;;;;;4.73;4.23;;;9.20;99.90;;;;;;5003498;28;20444;-81
2021/10/13 09:00:47;;;;;;;4.13;3.70;;;9.70;99.90;;;;;;4996275;28;20450;-82
2021/10/13 09:03:30;;;;;;;5.13;4.00;;;9.70;99.90;;;;;;5013910;28;20473;-80
2021/10/13 09:06:21;;;;;;;5.47;3.93;;;10.20;99.90;;;;;;4995902;28;20463;-80
2021/10/13 09:09:05;;;;;;;5.40;3.67;;;10.50;99.90;;;;;;4982909;28;20429;-80
2021/10/13 09:11:48;;;;;;;4.00;3.50;;;11.00;99.90;;;;;;5003024;28;20447;-78
2021/10/13 09:14:18;;;;;;;5.70;4.00;;;11.10;99.90;;;;;;4999643;28;20448;-81
2021/10/13 09:17:04;;;;;;;4.40;4.00;;;11.20;99.90;;;;;;5007033;28;20436;-81
2021/10/13 09:19:43;;;;;;;5.87;4.60;;;10.70;99.90;;;;;;5013223;28;20488;-79
2021/10/13 09:22:13;;;;;;;5.28;4.00;;;10.80;99.90;;;;;;5010504;28;20439;-79
2021/10/13 09:24:42;;;;;;;6.47;3.93;;;11.20;99.90;;;;;;5011497;28;20192;-80
2021/10/13 09:27:25;;;;;;;4.50;3.33;;;11.60;99.90;;;;;;4990324;28;20445;-80
2021/10/13 09:29:58;;;;;;;4.80;4.40;;;13.20;99.90;;;;;;5013460;28;20463;-80
2021/10/13 09:32:27;;;;;;;4.30;3.90;;;13.20;99.90;;;;;;5007916;28;20585;-80
2021/10/13 09:34:55;;;;;;;5.07;4.60;;;13.50;99.90;;;;;;4990321;28;20260;-80
2021/10/13 09:37:23;;;;;;;7.53;3.40;;;13.20;99.90;;;;;;5007900;28;20436;-80
2021/10/13 09:40:00;;;;;;;4.40;3.97;;;11.20;99.90;;;;;;5012928;28;20982;-80
2021/10/13 09:42:27;;;;;;;5.33;4.10;;;10.50;99.90;;;;;;5013938;28;20454;-80
2021/10/13 09:44:58;;;;;;;5.80;4.03;;;12.10;99.90;;;;;;5014481;28;20907;-82
2021/10/13 09:47:34;;;;;;;5.73;3.93;;;13.40;99.90;;;;;;5014943;28;20935;-82
2021/10/13 09:50:20;;;;;;;7.23;3.70;;;11.70;99.90;;;;;;5015456;28;20925;-80
2021/10/13 09:52:46;;;;;;;3.80;3.50;;;12.10;99.90;;;;;;5037539;28;20943;-81
2021/10/13 09:55:14;;;;;;;4.50;4.00;;;14.40;99.90;;;;;;5034069;28;20430;-81
2021/10/13 09:57:44;;;;;;;3.97;3.57;;;13.70;99.90;;;;;;5035187;28;20354;-81
2021/10/13 10:00:13;;;;;;;6.50;3.80;;;13.70;99.90;;;;;;5026918;28;20434;-81
2021/10/13 10:02:45;;;;;;;4.60;4.10;;;13.30;99.90;;;;;;5030218;28;20994;-78
2021/10/13 10:05:24;;;;;;;12.17;6.97;;;12.90;99.90;;;;;;5036697;28;20461;-83
2021/10/13 10:08:04;;;;;;;4.50;4.20;;;12.30;99.90;;;;;;5015123;28;20525;-82
2021/10/13 10:10:31;;;;;;;5.90;3.30;;;13.50;99.90;;;;;;5028461;28;20443;-82
2021/10/13 10:13:03;;;;;;;4.30;3.53;;;13.60;99.90;;;;;;5025999;28;20632;-81
2021/10/13 10:15:33;;;;;;;5.67;4.37;;;12.50;99.90;;;;;;5013050;28;21026;-80
2021/10/13 10:17:59;;;;;;;2.47;2.27;;;13.50;99.90;;;;;;5014815;28;20435;-79
2021/10/13 10:20:36;;;;;;;4.20;1.70;;;13.60;99.90;;;;;;5010515;28;20428;-80
2021/10/13 10:23:22;;;;;;;3.07;2.23;;;14.80;99.90;;;;;;5025330;28;20486;-81
2021/10/13 10:25:48;;;;;;;5.07;1.87;;;16.10;99.90;;;;;;5011668;28;20455;-82
2021/10/13 10:28:44;;;;;;;2.30;1.63;;;16.50;99.90;;;;;;5011803;28;20428;-78
2021/10/13 10:31:39;;;;;;;2.30;1.40;;;17.10;99.90;;;;;;5019179;28;20184;-80
2021/10/13 10:34:10;;;;;;;1.40;1.30;;;17.50;99.90;;;;;;5017162;28;20447;-81
2021/10/13 10:37:14;;;;;;;1.73;1.30;;;18.30;99.90;;;;;;5016729;28;20436;-81
2021/10/13 10:39:56;;;;;;;4.80;1.63;;;18.70;99.00;;;;;;5023009;28;20991;-82
2021/10/13 10:42:45;;;;;;;2.23;1.60;;;19.20;96.40;;;;;;5011265;28;20602;-84
2021/10/13 10:45:15;;;;;;;2.13;1.93;;;18.90;97.20;;;;;;5016106;28;20443;-82
2021/10/13 10:47:53;;;;;;;2.27;1.57;;;19.20;94.10;;;;;;5016984;28;20455;-79
2021/10/13 10:50:35;;;;;;;1.77;1.30;;;18.90;94.80;;;;;;5034694;28;20459;-82
2021/10/13 10:53:14;;;;;;;1.37;1.27;;;19.10;94.00;;;;;;4997076;28;20559;-80
2021/10/13 10:55:43;;;;;;;1.87;1.70;;;18.30;93.90;;;;;;5013735;28;21149;-82
2021/10/13 10:58:33;;;;;;;1.60;1.50;;;19.20;94.30;;;;;;5018952;28;20504;-81
2021/10/13 11:01:06;;;;;;;3.20;1.83;;;19.80;94.00;;;;;;5013893;28;20443;-81
2021/10/13 11:03:36;;;;;;;2.93;1.80;;;20.00;93.90;;;;;;5022191;28;20986;-81
2021/10/13 11:06:33;;;;;;;2.70;2.03;;;20.20;92.10;;;;;;5020937;28;20432;-81
2021/10/13 11:09:05;;;;;;;1.90;1.80;;;20.40;92.60;;;;;;5013918;28;20432;-81
2021/10/13 11:11:34;;;;;;;3.80;1.75;;;20.30;92.30;;;;;;4986801;28;20415;-81
2021/10/13 11:14:11;;;;;;;2.30;1.87;;;19.70;93.10;;;;;;5007041;28;20205;-81
2021/10/13 11:16:50;;;;;;;2.83;1.90;;;18.90;94.70;;;;;;5007657;28;20446;-83
2021/10/13 11:19:20;;;;;;;2.27;1.70;;;18.00;96.30;;;;;;5009792;28;20918;-82
2021/10/13 11:21:53;;;;;;;3.00;1.80;;;16.80;96.40;;;;;;5002123;28;20878;-81
2021/10/13 11:24:21;;;;;;;2.30;2.00;;;16.30;97.90;;;;;;4986456;28;20436;-81
2021/10/13 11:26:47;;;;;;;2.90;1.70;;;15.80;97.80;;;;;;5005007;28;20458;-80
2021/10/13 11:29:18;;;;;;;3.80;1.77;;;16.60;99.50;;;;;;5010587;28;20966;-81
2021/10/13 11:31:44;;;;;;;1.33;1.23;;;17.40;96.20;;;;;;5008824;28;20224;-80
2021/10/13 11:34:29;;;;;;;1.60;1.50;;;18.30;95.60;;;;;;4979927;28;20421;-82
2021/10/13 11:36:57;;;;;;;1.97;1.70;;;19.10;92.90;;;;;;4995072;28;20429;-80
2021/10/13 11:39:26;;;;;;;3.00;1.60;;;19.30;91.50;;;;;;4990115;28;20209;-80
2021/10/13 11:41:53;;;;;;;3.57;2.17;;;19.30;91.40;;;;;;4989762;28;20932;-79
2021/10/13 11:44:23;;;;;;;2.93;1.90;;;19.50;92.00;;;;;;4992010;28;20458;-81
2021/10/13 11:47:03;;;;;;;5.63;2.80;;;19.20;91.30;;;;;;4992699;28;20574;-82
2021/10/13 11:49:30;;;;;;;2.60;1.50;;;19.30;92.30;;;;;;4988806;28;20448;-82
2021/10/13 11:52:13;;;;;;;2.83;2.00;;;19.50;93.40;;;;;;4988592;28;20429;-82
2021/10/13 11:54:41;;;;;;;2.17;1.70;;;20.00;90.40;;;;;;4986408;28;20433;-83
2021/10/13 11:57:07;;;;;;;2.43;1.57;;;20.20;90.60;;;;;;4989347;28;20426;-83
2021/10/13 11:59:34;;;;;;;1.70;1.50;;;20.80;90.90;;;;;;4992646;28;20454;-82
2021/10/13 12:02:16;;;;;;;1.47;1.37;;;21.50;88.00;;;;;;4990939;28;20966;-82
2021/10/13 12:04:52;;;;;;;3.30;1.40;;;21.90;79.70;;;;;;4996350;28;20437;-79
2021/10/13 12:07:23;;;;;;;1.43;1.33;;;22.20;77.50;;;;;;5011395;28;20443;-81
2021/10/13 12:09:59;;;;;;;3.43;1.60;;;22.20;74.80;;;;;;5011975;28;20424;-82
2021/10/13 12:12:27;;;;;;;2.97;1.40;;;21.90;74.80;;;;;;5010615;28;20428;-82
2021/10/13 12:14:53;;;;;;;2.47;2.00;;;21.80;75.90;;;;;;5011643;28;20979;-82
2021/10/13 12:17:30;;;;;;;2.13;1.80;;;20.80;79.80;;;;;;5010521;28;20470;-81
2021/10/13 12:19:58;;;;;;;1.43;1.30;;;21.80;77.60;;;;;;5007639;28;20674;-83
2021/10/13 12:22:24;;;;;;;2.00;1.40;;;20.60;79.30;;;;;;5011255;28;20959;-79
2021/10/13 12:24:50;;;;;;;2.00;1.80;;;20.50;77.60;;;;;;5014863;28;20802;-82
2021/10/13 12:27:27;;;;;;;1.60;1.50;;;17.90;81.10;;;;;;5004559;28;21609;-81
2021/10/13 12:29:53;;;;;;;1.60;1.50;;;18.40;87.30;;;;;;5009167;28;20523;-79
2021/10/13 12:32:21;;;;;;;1.40;1.30;;;18.60;89.60;;;;;;5005988;28;20567;-81
2021/10/13 12:34:47;;;;;;;1.50;1.40;;;19.20;84.60;;;;;;4990479;28;20188;-80
2021/10/13 12:37:13;;;;;;;1.40;1.20;;;19.90;86.40;;;;;;5006720;28;20456;-80
2021/10/13 12:39:40;;;;;;;1.50;1.40;;;20.80;80.20;;;;;;5013882;28;20444;-81
2021/10/13 12:42:11;;;;;;;1.57;1.47;;;20.60;79.40;;;;;;5007298;28;21145;-81
2021/10/13 12:44:42;;;;;;;2.70;1.20;;;20.80;78.70;;;;;;4991547;28;20300;-80
2021/10/13 12:47:12;;;;;;;3.17;1.73;;;20.90;73.60;;;;;;5008750;28;20428;-82
2021/10/13 12:49:45;;;;;;;2.47;1.40;;;21.90;71.10;;;;;;5015582;28;20939;-82
2021/10/13 12:52:26;;;;;;;1.53;1.30;;;22.70;69.60;;;;;;5028713;28;20499;-82
2021/10/13 12:54:55;;;;;;;4.27;1.97;;;20.50;71.90;;;;;;5026831;28;20945;-83
2021/10/13 12:57:23;;;;;;;1.70;1.60;;;20.50;77.00;;;;;;5007328;28;21072;-80
2021/10/13 12:59:50;;;;;;;2.23;2.03;;;18.70;75.40;;;;;;5039433;28;20442;-83
2021/10/13 13:02:16;;;;;;;1.40;1.27;;;19.80;74.00;;;;;;5028625;28;20880;-83
2021/10/13 13:04:43;;;;;;;2.27;1.63;;;20.70;78.50;;;;;;5030702;28;20436;-80
2021/10/13 13:07:10;;;;;;;2.33;1.77;;;21.30;72.70;;;;;;5028200;28;20566;-79